createdAt,value
2018-07-25T00:00:23.914Z,24.61
2018-07-25T00:01:04.525Z,24.51
2018-07-25T00:01:45.101Z,24.55
2018-07-25T00:02:25.661Z,24.55
2018-07-25T00:03:06.257Z,24.5
2018-07-25T00:03:46.813Z,24.54
2018-07-25T00:04:27.373Z,24.51
2018-07-25T00:05:07.944Z,24.53
2018-07-25T00:05:48.509Z,24.55
2018-07-25T00:06:29.076Z,24.42
2018-07-25T00:07:09.642Z,24.53
2018-07-25T00:07:50.202Z,24.54
2018-07-25T00:08:30.775Z,24.54
2018-07-25T00:09:11.354Z,24.53
2018-07-25T00:09:51.926Z,24.45
2018-07-25T00:10:32.499Z,24.43
2018-07-25T00:11:13.070Z,24.51
2018-07-25T00:11:53.639Z,24.42
2018-07-25T00:12:34.212Z,24.45
2018-07-25T00:13:14.787Z,24.42
2018-07-25T00:13:55.358Z,24.43
2018-07-25T00:14:35.917Z,24.4
2018-07-25T00:15:16.480Z,24.28
2018-07-25T00:15:57.035Z,24.29
2018-07-25T00:16:37.625Z,24.33
2018-07-25T00:17:18.216Z,24.32
2018-07-25T00:17:58.782Z,24.35
2018-07-25T00:18:39.340Z,24.26
2018-07-25T00:19:19.958Z,24.39
2018-07-25T00:20:00.519Z,24.38
2018-07-25T00:20:41.088Z,24.33
2018-07-25T00:21:21.660Z,24.28
2018-07-25T00:22:02.221Z,24.26
2018-07-25T00:22:42.781Z,24.24
2018-07-25T00:23:23.350Z,24.24
2018-07-25T00:24:03.929Z,24.24
2018-07-25T00:24:44.501Z,24.28
2018-07-25T00:25:25.133Z,24.23
2018-07-25T00:26:05.689Z,24.21
2018-07-25T00:26:46.266Z,24.26
2018-07-25T00:27:26.834Z,24.28
2018-07-25T00:28:07.405Z,24.26
2018-07-25T00:28:47.955Z,24.28
2018-07-25T00:29:28.516Z,24.24
2018-07-25T00:30:09.135Z,24.26
2018-07-25T00:30:49.689Z,24.29
2018-07-25T00:31:30.284Z,24.29
2018-07-25T00:32:10.886Z,24.26
2018-07-25T00:32:51.457Z,24.29
2018-07-25T00:33:32.018Z,24.23
2018-07-25T00:34:12.597Z,24.26
2018-07-25T00:34:53.152Z,24.23
2018-07-25T00:35:33.729Z,24.29
2018-07-25T00:36:14.307Z,24.24
2018-07-25T00:36:54.852Z,24.26
2018-07-25T00:37:35.425Z,24.33
2018-07-25T00:38:15.981Z,24.2
2018-07-25T00:38:56.546Z,24.26
2018-07-25T00:39:37.111Z,24.2
2018-07-25T00:40:17.667Z,24.24
2018-07-25T00:40:58.274Z,24.29
2018-07-25T00:41:38.879Z,24.21
2018-07-25T00:42:19.394Z,24.17
2018-07-25T00:42:59.969Z,24.23
2018-07-25T00:43:40.564Z,24.18
2018-07-25T00:44:21.124Z,24.2
2018-07-25T00:45:01.762Z,24.11
2018-07-25T00:45:42.348Z,24.18
2018-07-25T00:46:22.917Z,24.14
2018-07-25T00:47:03.485Z,24.23
2018-07-25T00:47:44.045Z,24.13
2018-07-25T00:48:24.613Z,24.26
2018-07-25T00:49:05.190Z,24.14
2018-07-25T00:49:45.748Z,24.17
2018-07-25T00:50:26.328Z,24.2
2018-07-25T00:51:06.888Z,24.2
2018-07-25T00:51:47.428Z,24.21
2018-07-25T00:52:28.030Z,24.17
2018-07-25T00:53:08.604Z,24.17
2018-07-25T00:53:49.188Z,24.16
2018-07-25T00:54:29.760Z,24.14
2018-07-25T00:55:10.325Z,24.14
2018-07-25T00:55:51.077Z,24.21
2018-07-25T00:56:31.645Z,24.16
2018-07-25T00:57:12.201Z,24.13
2018-07-25T00:57:52.839Z,24.13
2018-07-25T00:58:33.361Z,24.11
2018-07-25T00:59:13.919Z,24.02
2018-07-25T00:59:54.483Z,24.08
2018-07-25T01:00:35.050Z,24.05
2018-07-25T01:01:15.622Z,24.16
2018-07-25T01:01:56.195Z,24.06
2018-07-25T01:02:36.743Z,24.14
2018-07-25T01:03:17.317Z,24.11
2018-07-25T01:03:57.872Z,24.1
2018-07-25T01:04:38.466Z,24.03
2018-07-25T01:05:19.006Z,24.01
2018-07-25T01:05:59.585Z,23.95
2018-07-25T01:06:40.155Z,24.01
2018-07-25T01:07:20.724Z,24.05
2018-07-25T01:08:01.305Z,23.98
2018-07-25T01:08:41.855Z,24.02
2018-07-25T01:09:22.443Z,24.01
2018-07-25T01:10:03.025Z,24.02
2018-07-25T01:10:43.592Z,24.01
2018-07-25T01:11:24.168Z,24.05
2018-07-25T01:12:04.741Z,23.95
2018-07-25T01:12:45.364Z,23.93
2018-07-25T01:13:25.970Z,23.86
2018-07-25T01:14:06.561Z,23.98
2018-07-25T01:14:47.162Z,24.01
2018-07-25T01:15:27.740Z,23.98
2018-07-25T01:16:08.303Z,23.98
2018-07-25T01:16:48.880Z,23.93
2018-07-25T01:17:29.444Z,23.99
2018-07-25T01:18:10.054Z,23.95
2018-07-25T01:18:50.576Z,23.95
2018-07-25T01:19:31.146Z,24.02
2018-07-25T01:20:11.708Z,23.95
2018-07-25T01:20:52.289Z,23.98
2018-07-25T01:21:32.861Z,23.92
2018-07-25T01:22:13.442Z,23.91
2018-07-25T01:22:53.990Z,23.92
2018-07-25T01:23:34.571Z,23.95
2018-07-25T01:24:15.132Z,23.92
2018-07-25T01:24:55.707Z,23.96
2018-07-25T01:25:36.278Z,23.96
2018-07-25T01:26:16.850Z,23.88
2018-07-25T01:26:57.466Z,23.95
2018-07-25T01:27:38.053Z,23.95
2018-07-25T01:28:18.607Z,23.95
2018-07-25T01:28:59.223Z,23.92
2018-07-25T01:29:39.829Z,23.96
2018-07-25T01:30:20.413Z,23.95
2018-07-25T01:31:00.966Z,23.87
2018-07-25T01:31:41.529Z,23.87
2018-07-25T01:32:22.083Z,23.91
2018-07-25T01:33:02.640Z,23.84
2018-07-25T01:33:43.202Z,23.91
2018-07-25T01:34:23.782Z,23.86
2018-07-25T01:35:04.377Z,23.86
2018-07-25T01:35:44.954Z,23.78
2018-07-25T01:36:25.513Z,23.87
2018-07-25T01:37:06.144Z,23.84
2018-07-25T01:37:46.728Z,23.71
2018-07-25T01:38:27.299Z,23.83
2018-07-25T01:39:07.868Z,23.73
2018-07-25T01:39:48.437Z,23.8
2018-07-25T01:40:28.992Z,23.77
2018-07-25T01:41:09.576Z,23.8
2018-07-25T01:41:50.152Z,23.81
2018-07-25T01:42:30.729Z,23.77
2018-07-25T01:43:11.291Z,23.77
2018-07-25T01:43:51.870Z,23.81
2018-07-25T01:44:32.458Z,23.73
2018-07-25T01:45:12.987Z,23.76
2018-07-25T01:45:53.572Z,23.73
2018-07-25T01:46:34.146Z,23.74
2018-07-25T01:47:14.719Z,23.69
2018-07-25T01:47:55.288Z,23.69
2018-07-25T01:48:35.864Z,23.69
2018-07-25T01:49:16.441Z,23.73
2018-07-25T01:49:57.033Z,23.68
2018-07-25T01:50:37.604Z,23.62
2018-07-25T01:51:18.171Z,23.65
2018-07-25T01:51:58.738Z,23.63
2018-07-25T01:52:39.307Z,23.62
2018-07-25T01:53:19.864Z,23.65
2018-07-25T01:54:00.427Z,23.63
2018-07-25T01:54:40.967Z,23.59
2018-07-25T01:55:21.535Z,23.61
2018-07-25T01:56:02.096Z,23.62
2018-07-25T01:56:42.820Z,23.58
2018-07-25T01:57:23.385Z,23.62
2018-07-25T01:58:03.942Z,23.59
2018-07-25T01:58:44.499Z,23.51
2018-07-25T01:59:25.088Z,23.56
2018-07-25T02:00:05.666Z,23.59
2018-07-25T02:00:46.226Z,23.65
2018-07-25T02:01:26.943Z,23.54
2018-07-25T02:02:07.422Z,23.59
2018-07-25T02:02:47.985Z,23.55
2018-07-25T02:03:28.619Z,23.55
2018-07-25T02:04:09.181Z,23.54
2018-07-25T02:04:49.744Z,23.54
2018-07-25T02:05:30.313Z,23.54
2018-07-25T02:06:10.885Z,23.48
2018-07-25T02:06:51.458Z,23.61
2018-07-25T02:07:32.106Z,23.61
2018-07-25T02:08:12.831Z,23.55
2018-07-25T02:08:53.331Z,23.51
2018-07-25T02:09:33.887Z,23.56
2018-07-25T02:10:14.466Z,23.48
2018-07-25T02:10:55.063Z,23.48
2018-07-25T02:11:35.686Z,23.44
2018-07-25T02:12:16.231Z,23.55
2018-07-25T02:12:56.902Z,23.47
2018-07-25T02:13:37.471Z,23.44
2018-07-25T02:14:18.040Z,23.46
2018-07-25T02:14:58.608Z,23.32
2018-07-25T02:15:39.186Z,23.34
2018-07-25T02:16:20.570Z,23.46
2018-07-25T02:17:01.134Z,23.44
2018-07-25T02:17:41.714Z,23.47
2018-07-25T02:18:22.301Z,23.46
2018-07-25T02:19:02.889Z,23.37
2018-07-25T02:19:43.462Z,23.36
2018-07-25T02:20:24.028Z,23.43
2018-07-25T02:21:04.589Z,23.43
2018-07-25T02:21:45.147Z,23.48
2018-07-25T02:22:25.714Z,23.44
2018-07-25T02:23:06.270Z,23.54
2018-07-25T02:23:46.835Z,23.46
2018-07-25T02:24:27.380Z,23.47
2018-07-25T02:25:07.944Z,23.55
2018-07-25T02:25:48.523Z,23.41
2018-07-25T02:26:29.124Z,23.5
2018-07-25T02:27:09.703Z,23.5
2018-07-25T02:27:50.266Z,23.5
2018-07-25T02:28:30.827Z,23.54
2018-07-25T02:29:11.394Z,23.48
2018-07-25T02:29:51.953Z,23.5
2018-07-25T02:30:32.516Z,23.5
2018-07-25T02:31:13.108Z,23.39
2018-07-25T02:31:53.687Z,23.39
2018-07-25T02:32:34.245Z,23.44
2018-07-25T02:33:14.827Z,23.43
2018-07-25T02:33:55.401Z,23.37
2018-07-25T02:34:35.977Z,23.46
2018-07-25T02:35:16.551Z,23.41
2018-07-25T02:35:57.140Z,23.5
2018-07-25T02:36:37.710Z,23.48
2018-07-25T02:37:18.287Z,23.44
2018-07-25T02:37:58.853Z,23.43
2018-07-25T02:38:39.426Z,23.39
2018-07-25T02:39:19.985Z,23.36
2018-07-25T02:40:00.566Z,23.41
2018-07-25T02:40:41.139Z,23.37
2018-07-25T02:41:21.703Z,23.4
2018-07-25T02:42:02.284Z,23.39
2018-07-25T02:42:42.881Z,23.36
2018-07-25T02:43:23.484Z,23.4
2018-07-25T02:44:04.052Z,23.31
2018-07-25T02:44:44.624Z,23.32
2018-07-25T02:45:25.199Z,23.5
2018-07-25T02:46:05.767Z,23.43
2018-07-25T02:46:46.343Z,23.39
2018-07-25T02:47:26.877Z,23.36
2018-07-25T02:48:07.438Z,23.47
2018-07-25T02:48:47.995Z,23.43
2018-07-25T02:49:28.553Z,23.37
2018-07-25T02:50:09.108Z,23.44
2018-07-25T02:50:49.674Z,23.39
2018-07-25T02:51:30.258Z,23.36
2018-07-25T02:52:10.802Z,23.44
2018-07-25T02:52:51.379Z,23.41
2018-07-25T02:53:31.939Z,23.32
2018-07-25T02:54:12.507Z,23.37
2018-07-25T02:54:53.073Z,23.36
2018-07-25T02:55:33.642Z,23.31
2018-07-25T02:56:14.204Z,23.34
2018-07-25T02:56:54.868Z,23.37
2018-07-25T02:57:35.330Z,23.34
2018-07-25T02:58:15.901Z,23.36
2018-07-25T02:58:56.458Z,23.34
2018-07-25T02:59:36.993Z,23.37
2018-07-25T03:00:17.584Z,23.36
2018-07-25T03:00:58.148Z,23.4
2018-07-25T03:01:38.728Z,23.36
2018-07-25T03:02:19.305Z,23.4
2018-07-25T03:02:59.880Z,23.37
2018-07-25T03:03:40.431Z,23.39
2018-07-25T03:04:21.067Z,23.36
2018-07-25T03:05:01.607Z,23.36
2018-07-25T03:05:42.187Z,23.41
2018-07-25T03:06:22.750Z,23.34
2018-07-25T03:07:03.320Z,23.37
2018-07-25T03:07:43.898Z,23.36
2018-07-25T03:08:24.456Z,23.34
2018-07-25T03:09:05.085Z,23.32
2018-07-25T03:09:45.591Z,23.31
2018-07-25T03:10:26.224Z,23.23
2018-07-25T03:11:06.737Z,23.21
2018-07-25T03:11:47.305Z,23.27
2018-07-25T03:12:27.863Z,23.25
2018-07-25T03:13:08.454Z,23.28
2018-07-25T03:13:49.021Z,23.34
2018-07-25T03:14:29.599Z,23.18
2018-07-25T03:15:10.173Z,23.31
2018-07-25T03:15:50.720Z,23.31
2018-07-25T03:16:31.293Z,23.31
2018-07-25T03:17:11.851Z,23.34
2018-07-25T03:17:52.428Z,23.28
2018-07-25T03:18:33.001Z,23.27
2018-07-25T03:19:13.579Z,23.24
2018-07-25T03:19:54.166Z,23.31
2018-07-25T03:20:34.684Z,23.28
2018-07-25T03:21:15.251Z,23.25
2018-07-25T03:21:55.824Z,23.23
2018-07-25T03:22:36.402Z,23.27
2018-07-25T03:23:16.967Z,23.28
2018-07-25T03:23:57.513Z,23.23
2018-07-25T03:24:38.107Z,23.17
2018-07-25T03:25:18.669Z,23.15
2018-07-25T03:25:59.230Z,23.2
2018-07-25T03:26:39.805Z,23.31
2018-07-25T03:27:20.364Z,23.21
2018-07-25T03:28:00.993Z,23.32
2018-07-25T03:28:41.567Z,23.34
2018-07-25T03:29:22.136Z,23.37
2018-07-25T03:30:02.696Z,23.28
2018-07-25T03:30:43.258Z,23.24
2018-07-25T03:31:23.843Z,23.32
2018-07-25T03:32:04.415Z,23.23
2018-07-25T03:32:44.984Z,23.34
2018-07-25T03:33:25.569Z,23.31
2018-07-25T03:34:06.134Z,23.24
2018-07-25T03:34:46.705Z,23.23
2018-07-25T03:35:27.275Z,23.28
2018-07-25T03:36:07.827Z,23.21
2018-07-25T03:36:48.406Z,23.28
2018-07-25T03:37:28.979Z,23.32
2018-07-25T03:38:09.536Z,23.2
2018-07-25T03:38:50.097Z,23.36
2018-07-25T03:39:30.659Z,23.27
2018-07-25T03:40:11.241Z,23.28
2018-07-25T03:40:51.787Z,23.28
2018-07-25T03:41:32.349Z,23.28
2018-07-25T03:42:12.902Z,23.27
2018-07-25T03:42:53.455Z,23.2
2018-07-25T03:43:34.012Z,23.15
2018-07-25T03:44:14.582Z,23.17
2018-07-25T03:44:55.137Z,23.28
2018-07-25T03:45:35.704Z,23.23
2018-07-25T03:46:16.297Z,23.27
2018-07-25T03:46:56.858Z,23.31
2018-07-25T03:47:37.426Z,23.23
2018-07-25T03:48:18.021Z,23.17
2018-07-25T03:48:58.595Z,23.32
2018-07-25T03:49:39.153Z,23.32
2018-07-25T03:50:19.723Z,23.25
2018-07-25T03:51:00.269Z,23.32
2018-07-25T03:51:40.828Z,23.31
2018-07-25T03:52:21.383Z,23.28
2018-07-25T03:53:01.947Z,23.36
2018-07-25T03:53:42.526Z,23.36
2018-07-25T03:54:23.082Z,23.39
2018-07-25T03:55:03.660Z,23.39
2018-07-25T03:55:44.218Z,23.34
2018-07-25T03:56:24.785Z,23.36
2018-07-25T03:57:05.353Z,23.37
2018-07-25T03:57:45.926Z,23.37
2018-07-25T03:58:26.496Z,23.39
2018-07-25T03:59:07.057Z,23.39
2018-07-25T03:59:47.627Z,23.31
2018-07-25T04:00:28.178Z,23.4
2018-07-25T04:01:08.731Z,23.31
2018-07-25T04:01:49.286Z,23.4
2018-07-25T04:02:29.845Z,23.36
2018-07-25T04:03:10.382Z,23.34
2018-07-25T04:03:50.933Z,23.36
2018-07-25T04:04:31.491Z,23.36
2018-07-25T04:05:12.043Z,23.36
2018-07-25T04:05:52.645Z,23.39
2018-07-25T04:06:33.213Z,23.34
2018-07-25T04:07:13.795Z,23.36
2018-07-25T04:07:54.363Z,23.36
2018-07-25T04:08:34.919Z,23.23
2018-07-25T04:09:15.536Z,23.37
2018-07-25T04:09:56.076Z,23.31
2018-07-25T04:10:36.627Z,23.39
2018-07-25T04:11:17.195Z,23.34
2018-07-25T04:11:57.744Z,23.41
2018-07-25T04:12:38.301Z,23.34
2018-07-25T04:13:18.860Z,23.4
2018-07-25T04:13:59.442Z,23.36
2018-07-25T04:14:39.998Z,23.39
2018-07-25T04:15:20.564Z,23.32
2018-07-25T04:16:01.145Z,23.39
2018-07-25T04:16:41.707Z,23.36
2018-07-25T04:17:22.280Z,23.36
2018-07-25T04:18:02.856Z,23.44
2018-07-25T04:18:43.428Z,23.31
2018-07-25T04:19:23.994Z,23.39
2018-07-25T04:20:04.554Z,23.36
2018-07-25T04:20:45.109Z,23.44
2018-07-25T04:21:25.678Z,23.37
2018-07-25T04:22:06.243Z,23.43
2018-07-25T04:22:46.809Z,23.5
2018-07-25T04:23:27.404Z,23.44
2018-07-25T04:24:07.990Z,23.43
2018-07-25T04:24:48.591Z,23.39
2018-07-25T04:25:29.106Z,23.44
2018-07-25T04:26:09.722Z,23.47
2018-07-25T04:26:50.272Z,23.44
2018-07-25T04:27:30.832Z,23.46
2018-07-25T04:28:11.377Z,23.47
2018-07-25T04:28:51.943Z,23.47
2018-07-25T04:29:32.508Z,23.47
2018-07-25T04:30:13.163Z,23.48
2018-07-25T04:30:53.738Z,23.61
2018-07-25T04:31:34.349Z,23.56
2018-07-25T04:32:14.870Z,23.46
2018-07-25T04:32:55.444Z,23.58
2018-07-25T04:33:36.010Z,23.55
2018-07-25T04:34:16.582Z,23.54
2018-07-25T04:34:57.149Z,23.61
2018-07-25T04:35:37.716Z,23.58
2018-07-25T04:36:18.262Z,23.62
2018-07-25T04:36:58.824Z,23.62
2018-07-25T04:37:39.383Z,23.62
2018-07-25T04:38:19.943Z,23.65
2018-07-25T04:39:00.513Z,23.63
2018-07-25T04:39:41.080Z,23.59
2018-07-25T04:40:21.661Z,23.71
2018-07-25T04:41:02.233Z,23.62
2018-07-25T04:41:42.790Z,23.62
2018-07-25T04:42:23.394Z,23.65
2018-07-25T04:43:04.116Z,23.66
2018-07-25T04:43:44.683Z,23.68
2018-07-25T04:44:25.242Z,23.74
2018-07-25T04:45:05.825Z,23.71
2018-07-25T04:45:46.447Z,23.74
2018-07-25T04:46:27.176Z,23.68
2018-07-25T04:47:07.581Z,23.78
2018-07-25T04:47:48.150Z,23.69
2018-07-25T04:48:28.731Z,23.74
2018-07-25T04:49:09.328Z,23.78
2018-07-25T04:49:49.888Z,23.68
2018-07-25T04:50:30.467Z,23.73
2018-07-25T04:51:11.039Z,23.77
2018-07-25T04:51:51.599Z,23.8
2018-07-25T04:52:32.171Z,23.74
2018-07-25T04:53:12.751Z,23.74
2018-07-25T04:53:53.315Z,23.8
2018-07-25T04:54:33.902Z,23.8
2018-07-25T04:55:14.499Z,23.76
2018-07-25T04:55:55.043Z,23.8
2018-07-25T04:56:35.623Z,23.78
2018-07-25T04:57:16.200Z,23.81
2018-07-25T04:57:56.807Z,23.8
2018-07-25T04:58:37.370Z,23.8
2018-07-25T04:59:17.941Z,23.88
2018-07-25T04:59:58.508Z,23.87
2018-07-25T05:00:39.079Z,23.83
2018-07-25T05:01:19.653Z,23.91
2018-07-25T05:02:00.223Z,23.93
2018-07-25T05:02:40.816Z,23.96
2018-07-25T05:03:21.357Z,23.98
2018-07-25T05:04:01.969Z,24.05
2018-07-25T05:04:42.529Z,24.02
2018-07-25T05:05:23.081Z,23.95
2018-07-25T05:06:03.656Z,23.95
2018-07-25T05:06:44.215Z,23.96
2018-07-25T05:07:24.784Z,24.11
2018-07-25T05:08:05.340Z,24.1
2018-07-25T05:08:45.907Z,24.11
2018-07-25T05:09:26.476Z,24.14
2018-07-25T05:10:07.041Z,24.14
2018-07-25T05:10:47.599Z,24.16
2018-07-25T05:11:28.167Z,24.2
2018-07-25T05:12:08.738Z,24.17
2018-07-25T05:12:49.318Z,24.01
2018-07-25T05:13:29.881Z,24.2
2018-07-25T05:14:10.487Z,24.17
2018-07-25T05:14:51.069Z,24.03
2018-07-25T05:15:31.595Z,24.2
2018-07-25T05:16:12.173Z,24.18
2018-07-25T05:16:52.737Z,24.24
2018-07-25T05:17:33.297Z,24.14
2018-07-25T05:18:13.891Z,24.17
2018-07-25T05:18:54.444Z,24.14
2018-07-25T05:19:35.017Z,24.17
2018-07-25T05:20:15.573Z,24.14
2018-07-25T05:20:56.152Z,24.17
2018-07-25T05:21:36.711Z,24.2
2018-07-25T05:22:17.268Z,24.14
2018-07-25T05:22:57.831Z,24.23
2018-07-25T05:23:38.400Z,24.1
2018-07-25T05:24:18.984Z,24.23
2018-07-25T05:24:59.552Z,24.16
2018-07-25T05:25:40.120Z,24.18
2018-07-25T05:26:20.763Z,24.1
2018-07-25T05:27:01.218Z,24.18
2018-07-25T05:27:41.776Z,24.18
2018-07-25T05:28:22.338Z,24.21
2018-07-25T05:29:02.893Z,24.2
2018-07-25T05:29:43.451Z,24.21
2018-07-25T05:30:24.027Z,24.21
2018-07-25T05:31:04.613Z,24.2
2018-07-25T05:31:45.193Z,24.2
2018-07-25T05:32:25.759Z,24.24
2018-07-25T05:33:06.341Z,24.36
2018-07-25T05:33:46.907Z,24.26
2018-07-25T05:34:27.501Z,24.21
2018-07-25T05:35:08.082Z,24.3
2018-07-25T05:35:48.652Z,24.36
2018-07-25T05:36:29.222Z,24.32
2018-07-25T05:37:09.768Z,24.45
2018-07-25T05:37:50.338Z,24.43
2018-07-25T05:38:30.898Z,24.42
2018-07-25T05:39:11.447Z,24.57
2018-07-25T05:39:52.015Z,24.58
2018-07-25T05:40:32.625Z,24.66
2018-07-25T05:41:13.171Z,24.69
2018-07-25T05:41:53.743Z,24.73
2018-07-25T05:42:34.329Z,24.73
2018-07-25T05:43:14.862Z,24.77
2018-07-25T05:43:55.494Z,24.92
2018-07-25T05:44:36.004Z,25.01
2018-07-25T05:45:16.577Z,25.07
2018-07-25T05:45:57.179Z,25.18
2018-07-25T05:46:37.754Z,25.26
2018-07-25T05:47:18.320Z,25.29
2018-07-25T05:47:58.889Z,25.41
2018-07-25T05:48:39.446Z,25.41
2018-07-25T05:49:20.037Z,25.59
2018-07-25T05:50:00.580Z,25.55
2018-07-25T05:50:41.147Z,25.7
2018-07-25T05:51:21.727Z,25.73
2018-07-25T05:52:02.290Z,25.85
2018-07-25T05:52:42.849Z,25.91
2018-07-25T05:53:23.419Z,26.06
2018-07-25T05:54:03.990Z,26.13
2018-07-25T05:54:44.538Z,26.1
2018-07-25T05:55:25.115Z,26.34
2018-07-25T05:56:05.691Z,26.36
2018-07-25T05:56:46.321Z,26.48
2018-07-25T05:57:26.824Z,26.56
2018-07-25T05:58:07.398Z,26.6
2018-07-25T05:58:47.984Z,26.74
2018-07-25T05:59:28.556Z,26.75
2018-07-25T06:00:09.124Z,26.83
2018-07-25T06:00:49.704Z,26.93
2018-07-25T06:01:30.274Z,26.9
2018-07-25T06:02:10.889Z,27.02
2018-07-25T06:02:51.539Z,27.03
2018-07-25T06:03:32.091Z,27.25
2018-07-25T06:04:12.654Z,27.35
2018-07-25T06:04:53.197Z,27.37
2018-07-25T06:05:33.821Z,27.48
2018-07-25T06:06:14.485Z,27.42
2018-07-25T06:06:54.968Z,27.49
2018-07-25T06:07:35.532Z,27.47
2018-07-25T06:08:16.095Z,27.37
2018-07-25T06:08:56.663Z,27.45
2018-07-25T06:09:37.382Z,27.51
2018-07-25T06:10:17.919Z,27.54
2018-07-25T06:10:58.497Z,27.52
2018-07-25T06:11:39.132Z,27.55
2018-07-25T06:12:20.366Z,27.65
2018-07-25T06:13:01.996Z,27.73
2018-07-25T06:13:42.699Z,27.78
2018-07-25T06:14:23.488Z,27.83
2018-07-25T06:15:04.020Z,28.01
2018-07-25T06:15:44.603Z,28.05
2018-07-25T06:16:25.184Z,28.11
2018-07-25T06:17:05.761Z,28.11
2018-07-25T06:17:46.329Z,28.27
2018-07-25T06:18:26.883Z,28.19
2018-07-25T06:19:07.503Z,28.39
2018-07-25T06:19:48.083Z,28.27
2018-07-25T06:20:28.696Z,28.42
2018-07-25T06:21:09.267Z,28.45
2018-07-25T06:21:49.857Z,28.59
2018-07-25T06:22:30.457Z,28.63
2018-07-25T06:23:11.021Z,28.72
2018-07-25T06:23:51.592Z,28.79
2018-07-25T06:24:32.164Z,28.81
2018-07-25T06:25:12.754Z,28.91
2018-07-25T06:25:53.362Z,28.96
2018-07-25T06:26:33.880Z,29.02
2018-07-25T06:27:14.459Z,29.02
2018-07-25T06:27:55.045Z,29.08
2018-07-25T06:28:35.593Z,29.13
2018-07-25T06:29:16.166Z,29.13
2018-07-25T06:29:56.731Z,29.17
2018-07-25T06:30:37.312Z,29.17
2018-07-25T06:31:17.967Z,29.17
2018-07-25T06:31:58.473Z,29.26
2018-07-25T06:32:39.059Z,29.36
2018-07-25T06:33:19.630Z,29.41
2018-07-25T06:34:00.180Z,29.47
2018-07-25T06:34:40.805Z,29.5
2018-07-25T06:35:21.326Z,29.59
2018-07-25T06:36:01.900Z,29.57
2018-07-25T06:36:42.479Z,29.57
2018-07-25T06:37:23.039Z,29.68
2018-07-25T06:38:03.671Z,29.71
2018-07-25T06:38:44.220Z,29.66
2018-07-25T06:39:24.803Z,29.73
2018-07-25T06:40:05.384Z,29.72
2018-07-25T06:40:45.959Z,29.76
2018-07-25T06:41:26.548Z,29.75
2018-07-25T06:42:07.133Z,29.75
2018-07-25T06:42:47.695Z,29.69
2018-07-25T06:43:28.285Z,29.81
2018-07-25T06:44:08.855Z,29.81
2018-07-25T06:44:49.427Z,29.84
2018-07-25T06:45:30.003Z,29.9
2018-07-25T06:46:10.580Z,29.97
2018-07-25T06:46:51.181Z,29.98
2018-07-25T06:47:31.746Z,29.97
2018-07-25T06:48:12.354Z,30.15
2018-07-25T06:48:52.910Z,30.08
2018-07-25T06:49:33.495Z,30.13
2018-07-25T06:50:14.077Z,30.24
2018-07-25T06:50:54.703Z,30.27
2018-07-25T06:51:35.284Z,30.27
2018-07-25T06:52:15.889Z,30.25
2018-07-25T06:52:56.460Z,30.31
2018-07-25T06:53:37.069Z,30.25
2018-07-25T06:54:17.659Z,30.23
2018-07-25T06:54:58.265Z,30.23
2018-07-25T06:55:38.859Z,30.24
2018-07-25T06:56:19.407Z,30.27
2018-07-25T06:56:59.994Z,30.23
2018-07-25T06:57:40.579Z,30.27
2018-07-25T06:58:21.158Z,30.28
2018-07-25T06:59:01.717Z,30.3
2018-07-25T06:59:42.307Z,30.27
2018-07-25T07:00:22.891Z,30.25
2018-07-25T07:01:03.468Z,30.28
2018-07-25T07:01:44.028Z,30.23
2018-07-25T07:02:24.593Z,30.19
2018-07-25T07:03:05.168Z,30.21
2018-07-25T07:03:45.772Z,30.23
2018-07-25T07:04:26.392Z,30.23
2018-07-25T07:05:07.065Z,30.18
2018-07-25T07:05:47.632Z,30.13
2018-07-25T07:06:28.195Z,30.16
2018-07-25T07:07:08.773Z,30.16
2018-07-25T07:07:49.354Z,30.13
2018-07-25T07:08:29.941Z,30.15
2018-07-25T07:09:10.503Z,30.18
2018-07-25T07:09:51.084Z,30.24
2018-07-25T07:10:31.655Z,30.21
2018-07-25T07:11:12.232Z,30.25
2018-07-25T07:11:52.813Z,30.24
2018-07-25T07:12:33.392Z,30.3
2018-07-25T07:13:13.975Z,30.23
2018-07-25T07:13:54.570Z,30.21
2018-07-25T07:14:35.174Z,30.31
2018-07-25T07:15:15.759Z,30.32
2018-07-25T07:15:56.320Z,30.39
2018-07-25T07:16:36.885Z,30.4
2018-07-25T07:17:17.509Z,30.53
2018-07-25T07:17:58.037Z,30.48
2018-07-25T07:18:38.618Z,30.48
2018-07-25T07:19:19.481Z,30.5
2018-07-25T07:20:00.081Z,30.55
2018-07-25T07:20:40.714Z,30.59
2018-07-25T07:21:21.358Z,30.68
2018-07-25T07:22:01.952Z,30.61
2018-07-25T07:22:42.636Z,30.66
2018-07-25T07:23:23.513Z,30.7
2018-07-25T07:24:04.284Z,30.7
2018-07-25T07:24:44.794Z,30.8
2018-07-25T07:25:25.378Z,30.77
2018-07-25T07:26:05.967Z,30.77
2018-07-25T07:26:46.543Z,30.81
2018-07-25T07:27:27.111Z,30.91
2018-07-25T07:28:07.713Z,30.88
2018-07-25T07:28:48.298Z,30.8
2018-07-25T07:29:28.861Z,30.99
2018-07-25T07:30:09.441Z,30.91
2018-07-25T07:30:50.029Z,30.96
2018-07-25T07:31:30.703Z,31
2018-07-25T07:32:11.198Z,31.07
2018-07-25T07:32:51.780Z,31.07
2018-07-25T07:33:32.364Z,31.02
2018-07-25T07:34:12.938Z,31.02
2018-07-25T07:34:53.504Z,31.02
2018-07-25T07:35:34.085Z,30.99
2018-07-25T07:36:14.654Z,31.06
2018-07-25T07:36:55.219Z,31.09
2018-07-25T07:37:35.800Z,31.07
2018-07-25T07:38:16.386Z,31.07
2018-07-25T07:38:56.961Z,31.02
2018-07-25T07:39:37.547Z,31.14
2018-07-25T07:40:18.136Z,31.18
2018-07-25T07:40:58.733Z,31.15
2018-07-25T07:41:39.316Z,31.18
2018-07-25T07:42:19.900Z,31.28
2018-07-25T07:43:00.483Z,31.31
2018-07-25T07:43:41.073Z,31.36
2018-07-25T07:44:21.663Z,31.39
2018-07-25T07:45:02.232Z,31.46
2018-07-25T07:45:42.817Z,31.52
2018-07-25T07:46:23.379Z,31.47
2018-07-25T07:47:03.960Z,31.49
2018-07-25T07:47:44.544Z,31.47
2018-07-25T07:48:25.172Z,31.47
2018-07-25T07:49:05.777Z,31.47
2018-07-25T07:49:46.364Z,31.49
2018-07-25T07:50:26.946Z,31.56
2018-07-25T07:51:07.529Z,31.54
2018-07-25T07:51:48.109Z,31.58
2018-07-25T07:52:28.683Z,31.55
2018-07-25T07:53:09.283Z,31.56
2018-07-25T07:53:49.886Z,31.58
2018-07-25T07:54:30.450Z,31.58
2018-07-25T07:55:11.015Z,31.61
2018-07-25T07:55:51.587Z,31.46
2018-07-25T07:56:32.162Z,31.43
2018-07-25T07:57:12.749Z,31.49
2018-07-25T07:57:53.324Z,31.47
2018-07-25T07:58:33.900Z,31.42
2018-07-25T07:59:14.478Z,31.49
2018-07-25T07:59:55.058Z,31.39
2018-07-25T08:00:35.651Z,31.36
2018-07-25T08:01:16.255Z,31.33
2018-07-25T08:01:56.919Z,31.34
2018-07-25T08:02:37.507Z,31.37
2018-07-25T08:03:18.101Z,31.47
2018-07-25T08:03:58.676Z,31.43
2018-07-25T08:04:39.270Z,31.43
2018-07-25T08:05:19.855Z,31.42
2018-07-25T08:06:00.446Z,31.44
2018-07-25T08:06:41.017Z,31.55
2018-07-25T08:07:21.609Z,31.56
2018-07-25T08:08:02.185Z,31.61
2018-07-25T08:08:42.768Z,31.56
2018-07-25T08:09:23.332Z,31.47
2018-07-25T08:10:03.927Z,31.62
2018-07-25T08:10:44.568Z,31.56
2018-07-25T08:11:25.081Z,31.44
2018-07-25T08:12:05.656Z,31.44
2018-07-25T08:12:46.237Z,31.47
2018-07-25T08:13:26.816Z,31.54
2018-07-25T08:14:07.376Z,31.47
2018-07-25T08:14:47.951Z,31.43
2018-07-25T08:15:28.525Z,31.46
2018-07-25T08:16:09.113Z,31.47
2018-07-25T08:16:49.689Z,31.47
2018-07-25T08:17:30.300Z,31.4
2018-07-25T08:18:10.842Z,31.46
2018-07-25T08:18:51.421Z,31.61
2018-07-25T08:19:32.003Z,31.55
2018-07-25T08:20:12.577Z,31.58
2018-07-25T08:20:53.191Z,31.64
2018-07-25T08:21:33.877Z,31.61
2018-07-25T08:22:14.369Z,31.7
2018-07-25T08:22:54.953Z,31.73
2018-07-25T08:23:35.633Z,31.69
2018-07-25T08:24:16.131Z,31.69
2018-07-25T08:24:56.699Z,31.62
2018-07-25T08:25:37.331Z,31.69
2018-07-25T08:26:17.920Z,31.71
2018-07-25T08:26:58.471Z,31.71
2018-07-25T08:27:39.058Z,31.61
2018-07-25T08:28:19.628Z,31.56
2018-07-25T08:29:00.202Z,31.59
2018-07-25T08:29:40.774Z,31.55
2018-07-25T08:30:21.350Z,31.55
2018-07-25T08:31:01.916Z,31.56
2018-07-25T08:31:42.516Z,31.56
2018-07-25T08:32:23.089Z,31.56
2018-07-25T08:33:03.660Z,31.65
2018-07-25T08:33:44.243Z,31.74
2018-07-25T08:34:24.809Z,31.65
2018-07-25T08:35:05.370Z,31.7
2018-07-25T08:35:45.950Z,31.64
2018-07-25T08:36:26.538Z,31.65
2018-07-25T08:37:07.120Z,31.61
2018-07-25T08:37:47.764Z,31.61
2018-07-25T08:38:28.338Z,31.61
2018-07-25T08:39:08.920Z,31.66
2018-07-25T08:39:49.512Z,31.69
2018-07-25T08:40:30.089Z,31.62
2018-07-25T08:41:10.708Z,31.56
2018-07-25T08:41:51.262Z,31.56
2018-07-25T08:42:31.838Z,31.56
2018-07-25T08:43:12.416Z,31.56
2018-07-25T08:43:52.982Z,31.59